Time;durP1;ratioP1;P1;durP2;ratioP2;P2;SDS_P1;SDS_P2;PMS_P1;PMS_P2;Temp;Humidity;BMP_temperature;BMP_pressure;BME280_temperature;BME280_humidity;BME280_pressure;Samples;Min_cycle;Max_cycle;Signal;HPM_P1;HPM_P2
2022/04/25 00:02:25;;;;;;;2.92;1.98;;;13.10;72.70;;;;;;5134345;27;20106;-57
2022/04/25 00:04:51;;;;;;;2.08;1.52;;;13.10;72.80;;;;;;5134057;27;20023;-55
2022/04/25 00:07:17;;;;;;;2.53;1.50;;;13.10;72.70;;;;;;5116528;27;20490;-54
2022/04/25 00:09:43;;;;;;;2.10;1.40;;;13.00;72.70;;;;;;5134017;27;20388;-69
2022/04/25 00:12:09;;;;;;;1.65;1.15;;;13.00;72.80;;;;;;5134403;27;20034;-58
2022/04/25 00:14:35;;;;;;;2.50;1.55;;;12.90;72.20;;;;;;5133807;27;20482;-57
2022/04/25 00:17:01;;;;;;;1.17;0.82;;;12.90;72.00;;;;;;5133597;27;20035;-58
2022/04/25 00:19:27;;;;;;;2.47;1.00;;;12.80;71.80;;;;;;5134494;27;20023;-57
2022/04/25 00:21:52;;;;;;;1.45;1.00;;;12.80;71.60;;;;;;5133652;27;20464;-62
2022/04/25 00:24:18;;;;;;;1.08;0.80;;;12.80;71.30;;;;;;5115528;27;20034;-55
2022/04/25 00:26:44;;;;;;;1.30;1.00;;;12.80;70.90;;;;;;5114975;27;20035;-59
2022/04/25 00:29:11;;;;;;;1.10;0.80;;;12.80;70.70;;;;;;5133866;27;20259;-57
2022/04/25 00:31:37;;;;;;;1.45;0.90;;;12.80;70.40;;;;;;5134125;27;20106;-57
2022/04/25 00:34:21;;;;;;;1.13;0.80;;;12.80;70.30;;;;;;5115039;27;20557;-56
2022/04/25 00:36:47;;;;;;;1.45;0.85;;;12.70;70.00;;;;;;5114791;27;20156;-55
2022/04/25 00:39:12;;;;;;;1.20;0.77;;;12.80;70.20;;;;;;5133856;27;20076;-57
2022/04/25 00:41:39;;;;;;;0.73;0.70;;;12.80;69.90;;;;;;5133745;27;20031;-52
2022/04/25 00:44:05;;;;;;;0.90;0.70;;;12.80;69.80;;;;;;5114956;27;20019;-56
2022/04/25 00:46:30;;;;;;;1.70;0.77;;;12.80;69.60;;;;;;5133789;27;20498;-59
2022/04/25 00:48:56;;;;;;;0.85;0.70;;;12.80;69.40;;;;;;5114118;27;20031;-56
2022/04/25 00:51:22;;;;;;;0.90;0.60;;;12.70;69.30;;;;;;5133698;27;20019;-55
2022/04/25 00:53:48;;;;;;;1.90;0.68;;;12.80;69.30;;;;;;5132961;27;20444;-58
2022/04/25 00:56:17;;;;;;;0.47;0.47;;;12.80;69.30;;;;;;5114937;27;20110;-56
2022/04/25 00:58:44;;;;;;;0.93;0.70;;;12.70;69.20;;;;;;5133012;27;20357;-70
2022/04/25 01:01:11;;;;;;;0.50;0.50;;;12.80;69.20;;;;;;5133362;27;20047;-57
2022/04/25 01:03:36;;;;;;;2.78;0.70;;;12.80;69.00;;;;;;5133062;27;20030;-57
2022/04/25 01:06:02;;;;;;;0.80;0.73;;;12.90;68.90;;;;;;5132315;27;20566;-55
2022/04/25 01:08:28;;;;;;;1.00;0.52;;;12.90;68.90;;;;;;5132886;27;20484;-56
2022/04/25 01:10:55;;;;;;;1.10;0.60;;;12.90;68.80;;;;;;5114116;27;20054;-56
2022/04/25 01:13:21;;;;;;;0.50;0.50;;;13.00;68.60;;;;;;5133090;27;20019;-59
2022/04/25 01:15:46;;;;;;;1.17;0.60;;;13.00;68.50;;;;;;5132690;27;20057;-58
2022/04/25 01:18:12;;;;;;;0.52;0.52;;;13.10;68.20;;;;;;5133322;27;20026;-57
2022/04/25 01:20:38;;;;;;;0.60;0.60;;;13.00;68.00;;;;;;5114749;27;20026;-55
2022/04/25 01:27:15;;;;;;;1.02;0.52;;;13.10;68.30;;;;;;5132229;27;20023;-58
2022/04/25 01:28:37;;;;;;;0.82;0.60;;;13.20;67.80;;;;;;5132499;27;20422;-56
2022/04/25 01:31:03;;;;;;;0.60;0.50;;;13.30;67.50;;;;;;5132359;27;20079;-59
2022/04/25 01:33:29;;;;;;;0.65;0.50;;;13.30;67.10;;;;;;5132976;27;20064;-55
2022/04/25 01:35:55;;;;;;;0.55;0.55;;;13.40;67.10;;;;;;5113817;27;20042;-60
2022/04/25 01:38:21;;;;;;;0.50;0.43;;;13.40;66.90;;;;;;5114209;27;20058;-55
2022/04/25 01:40:47;;;;;;;0.50;0.50;;;13.40;66.80;;;;;;5132065;27;20461;-58
2022/04/25 01:43:13;;;;;;;0.77;0.57;;;13.40;66.70;;;;;;5132580;27;20047;-57
2022/04/25 01:45:41;;;;;;;2.60;0.50;;;13.50;66.50;;;;;;5132294;27;20174;-55
2022/04/25 01:48:08;;;;;;;0.50;0.50;;;13.40;66.40;;;;;;5131946;27;20023;-63
2022/04/25 01:50:33;;;;;;;0.88;0.57;;;13.40;66.50;;;;;;5114185;27;20468;-58
2022/04/25 01:52:59;;;;;;;0.77;0.55;;;13.40;66.70;;;;;;5131543;27;20028;-59
2022/04/25 01:55:25;;;;;;;1.38;0.50;;;13.50;66.60;;;;;;5132695;27;20022;-54
2022/04/25 01:57:51;;;;;;;0.50;0.50;;;13.50;66.60;;;;;;5113471;27;20113;-64
2022/04/25 02:00:16;;;;;;;0.65;0.55;;;13.40;66.70;;;;;;5114222;28;20020;-59
2022/04/25 02:02:42;;;;;;;2.40;0.60;;;13.40;66.70;;;;;;5132379;27;20031;-58
2022/04/25 02:05:08;;;;;;;0.63;0.50;;;13.40;66.80;;;;;;5131098;27;20019;-58
2022/04/25 02:07:34;;;;;;;0.40;0.38;;;13.40;66.90;;;;;;5132530;27;20045;-60
2022/04/25 02:10:00;;;;;;;1.00;0.60;;;13.40;66.80;;;;;;5131873;27;20420;-56
2022/04/25 02:12:26;;;;;;;0.50;0.50;;;13.40;67.00;;;;;;5132577;27;20472;-58
2022/04/25 02:14:51;;;;;;;0.65;0.50;;;13.40;66.70;;;;;;5113351;28;20081;-55
2022/04/25 02:17:17;;;;;;;0.50;0.50;;;13.50;66.50;;;;;;5113696;28;20433;-61
2022/04/25 02:19:44;;;;;;;0.70;0.40;;;13.50;66.40;;;;;;5132181;28;20468;-66
2022/04/25 02:22:11;;;;;;;0.43;0.30;;;13.60;66.30;;;;;;5132126;27;20023;-57
2022/04/25 02:24:38;;;;;;;0.50;0.50;;;13.70;66.00;;;;;;5132582;28;20027;-57
2022/04/25 02:27:05;;;;;;;0.90;0.50;;;13.70;65.80;;;;;;5113393;28;20031;-57
2022/04/25 02:29:39;;;;;;;0.50;0.50;;;13.70;65.70;;;;;;5132171;27;20031;-55
2022/04/25 02:32:05;;;;;;;1.20;0.65;;;13.70;65.40;;;;;;5131672;28;20023;-57
2022/04/25 02:34:32;;;;;;;0.50;0.50;;;13.70;65.60;;;;;;5113679;28;20065;-57
2022/04/25 02:36:58;;;;;;;0.52;0.50;;;13.70;65.60;;;;;;5113025;28;20369;-58
2022/04/25 02:39:24;;;;;;;0.43;0.43;;;13.80;65.70;;;;;;5132059;27;20536;-63
2022/04/25 02:41:51;;;;;;;0.85;0.63;;;13.80;65.60;;;;;;5131283;27;20051;-57
2022/04/25 02:44:17;;;;;;;0.60;0.50;;;13.70;65.50;;;;;;5132165;28;20031;-56
2022/04/25 02:46:43;;;;;;;1.83;0.70;;;13.70;65.70;;;;;;5132201;28;20102;-57
2022/04/25 02:49:09;;;;;;;1.00;0.60;;;13.70;65.90;;;;;;5131208;28;20059;-57
2022/04/25 02:51:35;;;;;;;1.27;0.47;;;13.70;65.90;;;;;;5131768;28;20073;-57
2022/04/25 02:54:01;;;;;;;0.85;0.60;;;13.70;66.00;;;;;;5131009;28;20041;-57
2022/04/25 02:56:26;;;;;;;2.42;0.60;;;13.70;66.10;;;;;;5132069;28;20405;-57
2022/04/25 02:58:52;;;;;;;0.50;0.50;;;13.70;66.20;;;;;;5130393;28;20042;-51
2022/04/25 03:01:18;;;;;;;1.95;0.45;;;13.70;66.10;;;;;;5113519;28;20023;-47
2022/04/25 03:03:43;;;;;;;0.88;0.60;;;13.70;66.20;;;;;;5131651;28;20072;-47
2022/04/25 03:06:09;;;;;;;1.02;0.60;;;13.70;66.20;;;;;;5131165;27;20026;-47
2022/04/25 03:08:37;;;;;;;1.42;0.60;;;13.60;66.30;;;;;;5131818;27;20030;-47
2022/04/25 03:11:04;;;;;;;0.75;0.60;;;13.60;66.40;;;;;;5131105;28;20038;-46
2022/04/25 03:13:31;;;;;;;1.83;0.50;;;13.60;66.50;;;;;;5131762;28;20019;-48
2022/04/25 03:15:57;;;;;;;0.82;0.50;;;13.50;66.80;;;;;;5113578;27;20054;-50
2022/04/25 03:18:23;;;;;;;1.23;0.60;;;13.50;67.70;;;;;;5135496;27;20024;-50
2022/04/25 03:20:50;;;;;;;0.70;0.55;;;13.40;67.90;;;;;;5134448;27;20023;-55
2022/04/25 03:23:18;;;;;;;0.50;0.43;;;13.40;67.40;;;;;;5135405;27;20068;-48
2022/04/25 03:25:45;;;;;;;0.60;0.40;;;13.40;67.50;;;;;;5116336;27;20030;-47
2022/04/25 03:28:11;;;;;;;0.50;0.50;;;13.40;67.80;;;;;;5134712;27;20019;-48
2022/04/25 03:30:37;;;;;;;0.60;0.60;;;13.40;68.20;;;;;;5116341;27;20024;-47
2022/04/25 03:33:03;;;;;;;0.57;0.50;;;13.40;68.50;;;;;;5116010;27;20019;-49
2022/04/25 03:35:30;;;;;;;2.58;0.80;;;13.30;68.50;;;;;;5133436;27;20015;-55
2022/04/25 03:37:57;;;;;;;2.25;0.60;;;13.30;68.70;;;;;;5115342;27;20047;-48
2022/04/25 03:40:24;;;;;;;2.38;0.55;;;13.20;68.90;;;;;;5134515;27;20106;-51
2022/04/25 03:42:49;;;;;;;1.98;0.55;;;13.20;69.10;;;;;;5133973;27;20051;-59
2022/04/25 03:45:18;;;;;;;0.82;0.60;;;13.20;69.20;;;;;;5135269;27;20087;-49
2022/04/25 03:47:45;;;;;;;0.63;0.47;;;13.20;69.20;;;;;;5134448;27;20111;-47
2022/04/25 03:50:13;;;;;;;0.85;0.47;;;13.20;69.60;;;;;;5115386;27;20063;-48
2022/04/25 03:52:40;;;;;;;1.52;0.80;;;13.20;69.70;;;;;;5099085;27;20074;-47
2022/04/25 03:58:02;;;;;;;1.50;0.88;;;13.20;70.00;;;;;;5134439;27;20543;-48
2022/04/25 04:00:28;;;;;;;2.00;0.68;;;13.20;69.80;;;;;;5115549;27;20369;-46
2022/04/25 04:02:54;;;;;;;1.45;0.57;;;13.20;69.80;;;;;;5115249;27;20098;-49
2022/04/25 04:05:20;;;;;;;1.30;0.65;;;13.20;70.00;;;;;;5134798;27;20030;-52
2022/04/25 04:07:46;;;;;;;2.05;0.60;;;13.30;70.00;;;;;;5134734;27;20023;-56
2022/04/25 04:10:14;;;;;;;1.65;0.55;;;13.30;69.90;;;;;;5134232;27;20026;-48
2022/04/25 04:12:39;;;;;;;0.40;0.40;;;13.30;70.00;;;;;;5116039;27;20118;-48
2022/04/25 04:15:06;;;;;;;1.10;0.57;;;13.20;70.10;;;;;;5133570;27;20205;-51
2022/04/25 04:17:35;;;;;;;0.40;0.40;;;13.30;70.00;;;;;;5133950;27;20026;-51
2022/04/25 04:20:03;;;;;;;1.10;0.50;;;13.30;69.90;;;;;;5133829;27;20039;-52
2022/04/25 04:22:32;;;;;;;0.50;0.50;;;13.30;69.80;;;;;;5098540;27;20023;-47
2022/04/25 04:25:03;;;;;;;0.88;0.60;;;13.30;69.80;;;;;;5115203;27;20118;-50
2022/04/25 04:27:32;;;;;;;0.60;0.50;;;13.40;70.10;;;;;;5098336;28;20032;-52
2022/04/25 04:30:00;;;;;;;1.70;0.70;;;13.30;70.10;;;;;;5133698;27;20091;-51
2022/04/25 04:32:29;;;;;;;1.17;0.70;;;13.30;70.20;;;;;;5115443;27;20502;-52
2022/04/25 04:34:56;;;;;;;1.33;0.70;;;13.40;70.10;;;;;;5133489;27;20027;-49
2022/04/25 04:37:22;;;;;;;2.85;0.88;;;13.40;69.80;;;;;;5131422;27;20020;-51
2022/04/25 04:39:48;;;;;;;0.95;0.60;;;13.60;69.50;;;;;;5115543;27;20023;-57
2022/04/25 04:42:14;;;;;;;0.60;0.60;;;13.60;69.60;;;;;;5133547;27;20074;-50
2022/04/25 04:44:42;;;;;;;0.80;0.60;;;13.60;69.50;;;;;;5133874;27;20400;-51
2022/04/25 04:47:09;;;;;;;5.10;1.13;;;13.60;70.30;;;;;;5132854;27;20143;-55
2022/04/25 04:49:34;;;;;;;1.13;0.70;;;13.70;69.90;;;;;;5132508;27;20547;-54
2022/04/25 04:52:03;;;;;;;1.75;0.60;;;13.70;69.90;;;;;;5133386;27;20102;-52
2022/04/25 04:54:28;;;;;;;1.45;0.70;;;13.70;70.00;;;;;;5133623;27;20023;-48
2022/04/25 04:56:54;;;;;;;2.08;0.70;;;13.90;70.00;;;;;;5133273;27;20022;-51
2022/04/25 04:59:20;;;;;;;1.15;0.80;;;13.90;69.90;;;;;;5098264;27;20038;-52
2022/04/25 05:02:05;;;;;;;1.52;1.02;;;13.90;69.80;;;;;;5133716;27;20060;-53
2022/04/25 05:04:31;;;;;;;1.23;0.90;;;13.90;69.60;;;;;;5133508;27;20027;-48
2022/04/25 05:06:57;;;;;;;1.02;0.60;;;13.90;69.40;;;;;;5132494;27;20102;-49
2022/04/25 05:09:24;;;;;;;2.75;0.73;;;13.90;69.20;;;;;;5114454;27;20242;-52
2022/04/25 05:11:50;;;;;;;3.03;0.80;;;13.90;69.00;;;;;;5132715;27;20023;-58
2022/04/25 05:14:17;;;;;;;1.92;0.75;;;13.90;69.10;;;;;;5133581;27;20117;-51
2022/04/25 05:16:45;;;;;;;4.18;0.90;;;13.90;69.30;;;;;;5133224;27;20134;-50
2022/04/25 05:19:11;;;;;;;1.08;0.80;;;13.90;69.60;;;;;;5131100;27;20237;-52
2022/04/25 05:21:39;;;;;;;1.88;0.90;;;13.90;69.50;;;;;;5133378;27;20023;-50
2022/04/25 05:24:09;;;;;;;1.70;0.80;;;13.90;69.50;;;;;;5132548;27;20028;-52
2022/04/25 05:26:35;;;;;;;1.98;0.90;;;13.90;69.40;;;;;;5113674;27;20127;-50
2022/04/25 05:29:02;;;;;;;1.77;0.80;;;14.00;69.40;;;;;;5131302;27;20035;-53
2022/04/25 05:31:28;;;;;;;0.98;0.70;;;14.20;69.00;;;;;;5113176;27;20023;-52
2022/04/25 05:33:54;;;;;;;1.27;0.85;;;14.20;68.50;;;;;;5131271;27;20023;-59
2022/04/25 05:36:19;;;;;;;2.58;1.10;;;14.30;68.40;;;;;;5131270;27;20616;-50
2022/04/25 05:38:45;;;;;;;7.45;1.00;;;14.40;68.20;;;;;;5129860;27;20377;-53
2022/04/25 05:41:11;;;;;;;6.22;1.30;;;14.50;68.00;;;;;;5126603;27;20660;-56
2022/04/25 05:43:38;;;;;;;1.17;0.88;;;14.60;67.90;;;;;;5096446;27;20539;-51
2022/04/25 05:46:04;;;;;;;3.75;0.98;;;14.70;67.40;;;;;;5131463;27;20042;-55
2022/04/25 05:54:00;;;;;;;1.17;0.82;;;14.90;66.80;;;;;;5125235;27;20030;-56
2022/04/25 05:56:26;;;;;;;3.70;1.00;;;15.00;66.40;;;;;;5126946;27;20034;-47
2022/04/25 05:58:52;;;;;;;2.53;0.90;;;15.10;66.40;;;;;;5129055;27;20387;-54
2022/04/25 06:01:18;;;;;;;4.53;1.45;;;15.10;66.20;;;;;;5131961;27;20027;-50
2022/04/25 06:03:44;;;;;;;1.77;1.00;;;15.20;65.90;;;;;;5131704;27;20577;-52
2022/04/25 06:06:09;;;;;;;1.70;1.20;;;15.20;65.50;;;;;;5109560;27;20376;-53
2022/04/25 06:08:36;;;;;;;2.60;1.13;;;15.20;65.80;;;;;;5107995;27;20023;-50
2022/04/25 06:11:03;;;;;;;2.47;0.90;;;15.30;65.80;;;;;;5126130;27;20030;-51
2022/04/25 06:13:29;;;;;;;2.50;1.15;;;15.20;64.90;;;;;;5108181;28;20043;-55
2022/04/25 06:15:55;;;;;;;7.03;3.83;;;15.20;65.40;;;;;;5125736;28;20019;-57
2022/04/25 06:18:22;;;;;;;4.72;1.20;;;15.10;65.70;;;;;;5093161;28;20031;-48
2022/04/25 06:21:06;;;;;;;3.03;1.30;;;15.20;65.70;;;;;;5131498;27;20102;-49
2022/04/25 06:23:32;;;;;;;1.80;1.10;;;15.30;65.50;;;;;;5131150;27;20027;-51
2022/04/25 06:25:58;;;;;;;2.83;1.30;;;15.40;65.20;;;;;;5131661;28;20508;-58
2022/04/25 06:28:26;;;;;;;3.63;1.60;;;15.50;64.90;;;;;;5131722;28;20083;-51
2022/04/25 06:30:52;;;;;;;2.60;1.42;;;15.50;64.80;;;;;;5113269;28;20027;-56
2022/04/25 06:33:18;;;;;;;5.00;1.38;;;15.50;64.60;;;;;;5131199;27;20300;-54
2022/04/25 06:35:45;;;;;;;2.20;1.33;;;15.70;64.50;;;;;;5131560;27;20413;-50
2022/04/25 06:38:11;;;;;;;2.63;1.35;;;15.70;64.20;;;;;;5131870;28;20490;-53
2022/04/25 06:40:40;;;;;;;3.92;2.25;;;15.70;63.80;;;;;;5132424;27;20035;-49
2022/04/25 06:43:07;;;;;;;4.22;1.20;;;15.70;63.70;;;;;;5131316;27;20118;-49
2022/04/25 06:45:33;;;;;;;4.13;1.73;;;15.60;63.60;;;;;;5131914;27;20023;-50
2022/04/25 06:47:59;;;;;;;2.17;1.38;;;15.60;64.20;;;;;;5112596;28;20499;-59
2022/04/25 06:50:26;;;;;;;3.30;1.80;;;15.70;64.30;;;;;;5129286;27;20031;-53
2022/04/25 06:52:52;;;;;;;2.72;1.50;;;15.80;63.50;;;;;;5134781;27;20050;-54
2022/04/25 06:55:19;;;;;;;5.35;1.92;;;15.70;63.30;;;;;;5116067;27;20106;-60
2022/04/25 06:57:47;;;;;;;7.03;1.60;;;15.70;63.50;;;;;;5135979;27;20023;-53
2022/04/25 07:00:17;;;;;;;3.60;2.00;;;15.80;63.40;;;;;;5133642;27;20033;-51
2022/04/25 07:02:44;;;;;;;3.00;1.60;;;15.90;63.00;;;;;;5098968;27;20023;-50
2022/04/25 07:05:11;;;;;;;3.55;1.60;;;16.20;62.90;;;;;;5133594;27;20026;-51
2022/04/25 07:07:38;;;;;;;3.65;1.70;;;16.70;61.90;;;;;;5117417;27;20061;-54
2022/04/25 07:10:05;;;;;;;3.25;1.90;;;17.00;59.80;;;;;;5133884;27;20476;-50
2022/04/25 07:12:31;;;;;;;2.65;1.58;;;18.10;59.20;;;;;;5134171;27;20034;-50
2022/04/25 07:14:57;;;;;;;4.68;2.25;;;19.10;54.60;;;;;;5134494;27;20539;-49
2022/04/25 07:17:23;;;;;;;3.53;2.25;;;20.60;52.70;;;;;;5115055;27;20068;-52
2022/04/25 07:19:49;;;;;;;3.42;2.30;;;23.30;48.00;;;;;;5099077;27;20015;-48
2022/04/25 07:30:29;;;;;;;5.80;2.00;;;29.80;34.10;;;;;;5131071;27;20164;-50
2022/04/25 07:32:57;;;;;;;3.38;1.67;;;28.40;34.80;;;;;;5132089;27;20164;-50
2022/04/25 07:35:23;;;;;;;5.07;1.90;;;26.50;35.90;;;;;;5128736;27;20019;-58
2022/04/25 07:37:49;;;;;;;2.85;2.00;;;25.20;38.40;;;;;;5132471;27;20020;-50
2022/04/25 07:40:15;;;;;;;5.35;2.03;;;24.60;39.00;;;;;;5130695;27;20042;-53
2022/04/25 07:42:41;;;;;;;3.13;2.20;;;23.90;40.30;;;;;;5114290;27;20046;-49
2022/04/25 07:45:07;;;;;;;6.03;2.85;;;23.50;41.30;;;;;;5112466;27;20072;-55
2022/04/25 07:47:35;;;;;;;3.40;2.08;;;23.90;41.50;;;;;;5129313;27;20460;-49
2022/04/25 07:50:01;;;;;;;6.65;1.92;;;25.60;39.10;;;;;;5129553;27;20023;-55
2022/04/25 07:52:27;;;;;;;7.10;2.10;;;25.60;38.10;;;;;;5132197;27;20023;-49
2022/04/25 07:54:55;;;;;;;3.90;2.03;;;25.60;37.90;;;;;;5134986;27;20061;-51
2022/04/25 07:57:20;;;;;;;3.63;2.05;;;25.10;37.90;;;;;;5132401;27;20019;-54
2022/04/25 07:59:47;;;;;;;3.17;2.10;;;24.50;38.80;;;;;;5134785;27;20095;-49
2022/04/25 08:02:13;;;;;;;7.20;2.67;;;23.80;40.00;;;;;;5114569;28;20042;-54
2022/04/25 08:04:39;;;;;;;4.07;2.92;;;23.40;41.00;;;;;;5114929;27;20089;-55
2022/04/25 08:07:05;;;;;;;4.53;2.03;;;23.60;42.10;;;;;;5134194;27;20352;-52
2022/04/25 08:09:31;;;;;;;7.32;2.50;;;25.30;38.60;;;;;;5133776;27;20035;-55
2022/04/25 08:20:09;;;;;;;3.00;2.10;;;21.20;44.70;;;;;;5134301;27;19956;-54
2022/04/25 08:22:54;;;;;;;2.50;2.00;;;20.40;46.70;;;;;;5115416;27;20031;-52
2022/04/25 08:25:20;;;;;;;2.97;1.80;;;19.90;48.20;;;;;;5114479;27;20498;-52
2022/04/25 08:27:46;;;;;;;4.63;2.20;;;19.70;48.70;;;;;;5133865;27;20106;-48
2022/04/25 08:30:20;;;;;;;3.58;2.10;;;19.90;48.40;;;;;;5133124;27;20065;-51
2022/04/25 08:32:46;;;;;;;2.90;1.67;;;19.90;48.10;;;;;;5115772;27;20454;-50
2022/04/25 08:35:13;;;;;;;3.10;2.33;;;20.00;48.30;;;;;;5132925;27;20027;-50
2022/04/25 08:37:40;;;;;;;4.03;2.17;;;20.30;47.50;;;;;;5134419;27;20026;-50
2022/04/25 08:40:07;;;;;;;5.53;2.28;;;21.00;45.80;;;;;;5115014;27;20333;-59
2022/04/25 08:42:35;;;;;;;4.95;2.20;;;21.80;44.70;;;;;;5133887;27;20047;-51
2022/04/25 08:45:05;;;;;;;4.13;2.03;;;23.20;42.20;;;;;;5133770;27;20027;-53
2022/04/25 08:47:37;;;;;;;5.38;2.42;;;23.90;40.00;;;;;;5133815;27;20080;-50
2022/04/25 08:50:03;;;;;;;3.42;1.88;;;24.60;38.80;;;;;;5115320;27;20210;-61
2022/04/25 08:52:30;;;;;;;4.80;2.55;;;26.20;36.50;;;;;;5133381;27;20023;-51
2022/04/25 08:55:00;;;;;;;4.00;2.05;;;27.00;35.30;;;;;;5114998;27;20073;-50
2022/04/25 08:57:31;;;;;;;2.60;1.85;;;27.70;33.90;;;;;;5114494;27;20119;-51
2022/04/25 08:59:59;;;;;;;4.65;2.55;;;26.80;34.00;;;;;;5133443;27;20019;-51
2022/04/25 09:02:25;;;;;;;2.85;1.90;;;25.30;35.70;;;;;;5132764;27;20078;-55
2022/04/25 09:04:51;;;;;;;5.97;1.92;;;24.10;37.80;;;;;;5098262;27;20115;-48
2022/04/25 09:07:18;;;;;;;6.40;1.98;;;23.20;39.50;;;;;;5132582;27;20019;-52
2022/04/25 09:09:44;;;;;;;2.92;1.77;;;22.60;40.60;;;;;;5114201;27;20023;-49
2022/04/25 09:12:12;;;;;;;3.15;1.90;;;22.20;41.50;;;;;;5132499;27;20186;-54
2022/04/25 09:14:40;;;;;;;7.28;1.80;;;21.90;42.30;;;;;;5132791;27;20043;-54
2022/04/25 09:17:07;;;;;;;3.90;1.75;;;21.60;43.10;;;;;;5097878;27;20022;-60
2022/04/25 09:19:34;;;;;;;4.22;1.63;;;21.30;43.90;;;;;;5114357;27;20031;-51
2022/04/25 09:22:00;;;;;;;3.50;1.73;;;20.80;44.90;;;;;;5114548;27;20023;-51
2022/04/25 09:24:30;;;;;;;3.83;2.00;;;20.50;45.70;;;;;;5114330;27;20113;-51
2022/04/25 09:27:08;;;;;;;3.13;1.90;;;20.20;46.10;;;;;;5114693;27;20042;-54
2022/04/25 09:29:35;;;;;;;2.70;1.80;;;20.30;46.30;;;;;;5132464;27;20046;-51
2022/04/25 09:32:02;;;;;;;2.95;1.77;;;20.30;46.40;;;;;;5133069;27;20490;-49
2022/04/25 09:37:15;;;;;;;3.30;1.70;;;20.00;47.10;;;;;;5132436;27;20034;-48
2022/04/25 09:39:41;;;;;;;2.38;1.80;;;19.60;47.60;;;;;;5132597;27;20087;-51
2022/04/25 09:42:09;;;;;;;4.75;1.60;;;19.40;48.20;;;;;;5132455;27;20381;-57
2022/04/25 09:44:57;;;;;;;3.30;1.88;;;19.10;48.60;;;;;;5113971;27;20023;-47
2022/04/25 09:47:29;;;;;;;5.05;1.70;;;19.00;49.20;;;;;;5132057;27;20025;-51
2022/04/25 09:50:06;;;;;;;3.67;1.70;;;18.80;49.40;;;;;;5132857;27;20025;-52
2022/04/25 09:52:33;;;;;;;3.72;1.80;;;18.80;49.50;;;;;;5132082;27;20030;-49
2022/04/25 09:55:14;;;;;;;3.70;1.95;;;18.60;50.00;;;;;;5132726;27;20468;-49
2022/04/25 09:57:41;;;;;;;3.17;1.80;;;18.50;50.40;;;;;;5132579;27;20483;-51
2022/04/25 10:00:09;;;;;;;4.88;2.13;;;18.30;50.40;;;;;;5132713;27;20011;-52
2022/04/25 10:02:40;;;;;;;3.47;2.10;;;18.30;50.50;;;;;;5096876;27;20031;-52
2022/04/25 10:05:15;;;;;;;3.88;2.03;;;18.40;50.40;;;;;;5113983;27;20095;-52
2022/04/25 10:07:42;;;;;;;4.82;2.17;;;18.40;50.00;;;;;;5132451;27;20167;-51
2022/04/25 10:10:12;;;;;;;4.63;2.40;;;18.50;50.00;;;;;;5113771;27;20031;-52
2022/04/25 10:12:39;;;;;;;6.28;2.17;;;18.70;49.30;;;;;;5096609;27;20035;-51
2022/04/25 10:15:08;;;;;;;3.85;2.35;;;18.80;49.00;;;;;;5131959;27;20039;-52
2022/04/25 10:17:40;;;;;;;6.40;2.40;;;19.10;48.90;;;;;;5112630;28;20020;-53
2022/04/25 10:20:08;;;;;;;4.28;2.20;;;19.40;47.60;;;;;;5096744;28;20027;-48
2022/04/25 10:22:35;;;;;;;6.65;2.70;;;19.50;47.80;;;;;;5131191;27;20094;-53
2022/04/25 10:25:03;;;;;;;4.75;3.13;;;19.90;46.70;;;;;;5131794;27;20106;-50
2022/04/25 10:27:34;;;;;;;4.00;3.20;;;20.00;46.50;;;;;;5134451;27;20421;-53
2022/04/25 10:30:16;;;;;;;5.65;2.35;;;20.20;45.70;;;;;;5135454;27;20019;-53
2022/04/25 10:32:42;;;;;;;4.53;2.70;;;20.00;45.60;;;;;;5135984;27;20027;-53
2022/04/25 10:35:14;;;;;;;5.75;2.42;;;19.70;46.10;;;;;;5117287;27;20476;-51
2022/04/25 10:37:43;;;;;;;6.10;2.60;;;19.50;46.40;;;;;;5117169;27;20103;-54
2022/04/25 10:44:10;;;;;;;3.30;2.50;;;19.50;45.60;;;;;;5100683;27;20051;-51
2022/04/25 10:46:03;;;;;;;5.43;2.80;;;19.40;46.40;;;;;;5135759;27;20399;-50
2022/04/25 10:48:49;;;;;;;2.88;2.33;;;19.40;46.70;;;;;;5134679;27;20049;-52
2022/04/25 10:51:18;;;;;;;6.13;2.85;;;19.60;46.00;;;;;;5134867;27;20329;-59
2022/04/25 10:53:56;;;;;;;4.25;3.20;;;19.60;45.50;;;;;;5135447;27;20050;-49
2022/04/25 10:56:23;;;;;;;3.47;2.88;;;19.60;45.60;;;;;;5134890;27;20019;-52
2022/04/25 10:59:26;;;;;;;4.30;2.70;;;19.80;45.80;;;;;;5117146;27;20031;-53
2022/04/25 11:01:54;;;;;;;3.70;3.08;;;19.90;45.60;;;;;;5135550;27;20027;-53
2022/04/25 11:04:39;;;;;;;8.50;3.40;;;20.10;45.10;;;;;;5116564;27;20110;-54
2022/04/25 11:07:25;;;;;;;4.13;3.17;;;20.10;44.50;;;;;;5116802;27;20027;-53
2022/04/25 11:09:52;;;;;;;6.38;3.00;;;19.90;44.80;;;;;;5117156;27;20072;-52
2022/04/25 11:12:18;;;;;;;7.68;3.30;;;19.60;45.10;;;;;;5134645;27;20050;-60
2022/04/25 11:15:01;;;;;;;7.15;3.60;;;19.40;46.00;;;;;;5116385;27;20027;-51
2022/04/25 11:20:11;;;;;;;4.88;3.50;;;19.10;47.10;;;;;;5119229;27;20441;-57
2022/04/25 11:22:37;;;;;;;5.65;3.50;;;19.00;48.00;;;;;;5134252;27;20023;-51
2022/04/25 11:25:27;;;;;;;5.47;4.30;;;19.00;47.40;;;;;;5135109;27;20078;-48
2022/04/25 11:28:11;;;;;;;5.05;3.50;;;19.10;47.00;;;;;;5134723;27;20102;-58
2022/04/25 11:30:38;;;;;;;3.90;3.25;;;19.20;46.00;;;;;;5115750;27;20083;-52
2022/04/25 11:33:08;;;;;;;6.80;3.47;;;19.20;44.90;;;;;;5116480;27;20115;-54
2022/04/25 11:35:35;;;;;;;7.93;3.90;;;19.20;44.60;;;;;;5115571;27;20332;-54
2022/04/25 11:38:01;;;;;;;5.90;3.55;;;19.20;44.50;;;;;;5116126;27;20420;-51
2022/04/25 11:40:27;;;;;;;8.27;3.63;;;19.20;44.60;;;;;;5134330;27;20023;-54
2022/04/25 11:42:54;;;;;;;5.22;3.60;;;19.20;44.60;;;;;;5115997;27;20032;-51
2022/04/25 11:45:20;;;;;;;9.93;4.88;;;19.20;44.80;;;;;;5098451;27;20453;-58
2022/04/25 11:47:46;;;;;;;5.18;3.45;;;19.20;44.90;;;;;;5115570;27;20027;-57
2022/04/25 11:50:12;;;;;;;6.10;3.83;;;19.30;44.70;;;;;;5134505;27;20027;-48
2022/04/25 11:52:45;;;;;;;5.15;3.53;;;19.30;44.80;;;;;;5133547;27;20456;-54
2022/04/25 11:55:11;;;;;;;;;;;19.30;44.40;;;;;;5115639;27;20027;-56
2022/04/25 11:57:42;;;;;;;6.00;3.85;;;19.40;44.40;;;;;;5114923;27;20355;-54
2022/04/25 12:00:16;;;;;;;8.93;3.80;;;19.50;44.30;;;;;;5133940;27;20024;-53
2022/04/25 12:02:44;;;;;;;5.15;4.00;;;19.50;44.60;;;;;;5133717;27;20019;-52
2022/04/25 12:05:10;;;;;;;5.95;3.95;;;19.60;44.40;;;;;;5133940;27;20060;-58
2022/04/25 12:07:38;;;;;;;4.15;3.15;;;19.60;44.80;;;;;;5097943;27;20034;-50
2022/04/25 12:15:35;;;;;;;5.80;3.88;;;19.80;43.70;;;;;;5133912;27;20027;-59
2022/04/25 12:18:16;;;;;;;9.68;3.78;;;19.90;43.60;;;;;;5115657;27;20019;-52
2022/04/25 12:20:44;;;;;;;4.95;3.55;;;19.90;43.60;;;;;;5133358;27;20088;-52
2022/04/25 12:23:19;;;;;;;7.07;4.22;;;19.90;43.50;;;;;;5133887;27;20033;-55
2022/04/25 12:25:51;;;;;;;7.53;4.05;;;20.10;43.30;;;;;;5115076;27;20034;-50
2022/04/25 12:28:20;;;;;;;6.38;4.28;;;20.20;42.90;;;;;;5115511;27;20047;-48
2022/04/25 12:31:09;;;;;;;7.43;4.00;;;20.20;43.00;;;;;;5133224;27;20030;-53
2022/04/25 12:33:42;;;;;;;7.18;4.13;;;20.30;43.40;;;;;;5114310;27;20030;-52
2022/04/25 12:36:23;;;;;;;7.57;4.55;;;20.30;43.20;;;;;;5115137;27;20023;-52
2022/04/25 12:38:59;;;;;;;8.10;4.20;;;20.10;43.90;;;;;;5133532;27;20015;-52
2022/04/25 12:41:28;;;;;;;5.80;4.40;;;20.10;45.00;;;;;;5114105;27;20055;-56
2022/04/25 12:43:56;;;;;;;6.25;4.78;;;20.10;44.60;;;;;;5133492;27;20102;-48
2022/04/25 12:46:41;;;;;;;7.75;4.47;;;20.00;45.30;;;;;;5080976;27;20027;-58
2022/04/25 12:49:11;;;;;;;6.50;4.13;;;20.20;45.30;;;;;;5132767;27;20060;-51
2022/04/25 12:51:42;;;;;;;5.25;3.90;;;20.10;45.40;;;;;;5114249;27;20061;-53
2022/04/25 12:54:32;;;;;;;6.90;3.58;;;20.00;45.80;;;;;;5132858;27;20031;-54
2022/04/25 12:57:12;;;;;;;4.10;3.38;;;19.80;45.70;;;;;;5132594;27;20031;-54
2022/04/25 12:59:38;;;;;;;4.82;3.60;;;19.20;46.10;;;;;;5114152;27;20030;-50
2022/04/25 13:02:07;;;;;;;4.93;3.40;;;19.10;46.50;;;;;;5114870;27;20027;-54
2022/04/25 13:04:52;;;;;;;6.57;3.00;;;19.10;46.10;;;;;;5114073;27;20023;-53
2022/04/25 13:07:22;;;;;;;7.43;3.47;;;19.20;46.10;;;;;;5133103;27;20055;-51
2022/04/25 13:09:49;;;;;;;5.55;2.92;;;19.20;45.90;;;;;;5132999;27;20026;-50
2022/04/25 13:12:16;;;;;;;8.18;4.22;;;19.40;45.60;;;;;;5114419;27;20027;-55
2022/04/25 13:14:43;;;;;;;4.75;3.10;;;19.50;45.00;;;;;;5132331;27;20022;-51
2022/04/25 13:17:09;;;;;;;6.93;3.17;;;19.50;44.90;;;;;;5114634;27;20375;-55
2022/04/25 13:19:54;;;;;;;6.03;3.80;;;19.40;44.40;;;;;;5132344;27;20019;-50
2022/04/25 13:22:20;;;;;;;4.72;4.07;;;19.50;44.70;;;;;;5114565;27;20015;-52
2022/04/25 13:24:47;;;;;;;6.03;3.75;;;19.90;44.50;;;;;;5113676;27;20106;-54
2022/04/25 13:27:13;;;;;;;4.60;3.80;;;20.30;43.90;;;;;;5114524;27;20048;-54
2022/04/25 13:29:39;;;;;;;6.72;4.80;;;20.40;43.70;;;;;;5113595;27;20051;-49
2022/04/25 13:32:05;;;;;;;7.32;4.57;;;20.30;43.30;;;;;;5132339;27;20464;-53
2022/04/25 13:34:31;;;;;;;7.28;4.70;;;20.20;43.70;;;;;;5113678;27;20074;-52
2022/04/25 13:37:02;;;;;;;8.23;5.18;;;20.00;44.10;;;;;;5132418;27;20137;-53